Time;durP1;ratioP1;P1;durP2;ratioP2;P2;SDS_P1;SDS_P2;PMS_P1;PMS_P2;Temp;Humidity;BMP_temperature;BMP_pressure;BME280_temperature;BME280_humidity;BME280_pressure;Samples;Min_cycle;Max_cycle;Signal;HPM_P1;HPM_P2
2023/10/15 00:01:14;;;;;;;0.38;0.38;;;;;;;16.27;77.24;99241.91;5094597;28;20376;-72
2023/10/15 00:03:43;;;;;;;0.50;0.50;;;;;;;16.24;77.23;99245.41;5093752;28;20055;-72
2023/10/15 00:06:12;;;;;;;0.70;0.70;;;;;;;16.28;77.31;99241.00;5093892;28;20290;-72
2023/10/15 00:08:40;;;;;;;0.30;0.30;;;;;;;16.27;77.26;99234.19;5093800;28;20072;-72
2023/10/15 00:11:14;;;;;;;0.60;0.60;;;;;;;16.19;77.65;99221.53;5093687;28;20036;-72
2023/10/15 00:13:44;;;;;;;0.40;0.40;;;;;;;16.18;77.31;99224.13;5093980;28;20371;-71
2023/10/15 00:16:18;;;;;;;0.50;0.50;;;;;;;16.13;77.53;99220.84;5093794;28;20055;-72
2023/10/15 00:18:47;;;;;;;0.32;0.32;;;;;;;15.99;77.05;99219.56;5093728;28;20048;-71
2023/10/15 00:21:16;;;;;;;0.43;0.43;;;;;;;15.85;75.74;99214.00;5092753;28;20044;-71
2023/10/15 00:23:46;;;;;;;0.40;0.40;;;;;;;15.78;74.58;99222.78;5093991;28;20109;-71
2023/10/15 00:26:16;;;;;;;0.50;0.50;;;;;;;15.81;73.66;99222.66;5093685;28;20292;-71
2023/10/15 00:28:55;;;;;;;0.82;0.82;;;;;;;15.84;72.82;99232.88;5097767;28;20074;-72
2023/10/15 00:31:25;;;;;;;0.40;0.40;;;;;;;15.89;72.59;99248.19;5098145;28;20036;-70
2023/10/15 00:33:54;;;;;;;0.40;0.40;;;;;;;15.86;72.43;99241.38;5097530;28;20043;-71
2023/10/15 00:36:23;;;;;;;0.30;0.30;;;;;;;15.83;72.67;99244.06;5097988;28;20067;-70
2023/10/15 00:38:52;;;;;;;0.40;0.40;;;;;;;15.80;72.75;99233.88;5097686;28;20386;-72
2023/10/15 00:41:20;;;;;;;0.57;0.57;;;;;;;15.85;72.67;99234.56;5096483;28;20052;-71
2023/10/15 00:43:52;;;;;;;0.40;0.40;;;;;;;15.80;72.83;99222.72;5096453;28;20032;-71
2023/10/15 00:46:23;;;;;;;0.30;0.30;;;;;;;15.73;73.14;99211.78;5096634;28;20044;-72
2023/10/15 00:48:56;;;;;;;0.45;0.45;;;;;;;15.67;73.18;99206.78;5098082;28;20044;-71
2023/10/15 00:51:25;;;;;;;0.43;0.43;;;;;;;15.59;73.05;99202.75;5096415;28;20044;-71
2023/10/15 00:53:58;;;;;;;0.50;0.50;;;;;;;15.55;72.77;99212.28;5098252;28;20048;-71
2023/10/15 00:56:33;;;;;;;0.40;0.40;;;;;;;15.43;72.88;99217.72;5096410;28;20043;-71
2023/10/15 00:59:16;;;;;;;0.40;0.40;;;;;;;15.35;72.96;99227.41;5097438;28;20044;-70
2023/10/15 01:02:02;;;;;;;1.17;0.60;;;;;;;15.35;72.84;99240.25;5097294;28;20071;-71
2023/10/15 01:04:35;;;;;;;0.63;0.50;;;;;;;15.38;72.60;99245.31;5097284;28;20047;-71
2023/10/15 01:07:20;;;;;;;0.68;0.68;;;;;;;15.42;72.41;99236.63;5097201;28;20126;-71
2023/10/15 01:09:53;;;;;;;0.50;0.50;;;;;;;15.42;72.93;99236.63;5097377;28;20383;-71
2023/10/15 01:12:30;;;;;;;2.55;1.35;;;;;;;15.42;73.31;99246.94;5097144;28;20486;-71
2023/10/15 01:15:02;;;;;;;0.28;0.28;;;;;;;15.38;73.72;99237.59;5097311;28;20056;-71
2023/10/15 01:17:36;;;;;;;0.40;0.40;;;;;;;15.32;73.64;99251.47;5095952;28;20040;-71
2023/10/15 01:20:09;;;;;;;0.40;0.40;;;;;;;15.27;73.91;99262.75;5095734;28;20068;-70
2023/10/15 01:22:39;;;;;;;6.75;0.75;;;;;;;15.19;74.21;99259.53;5095770;28;20040;-71
2023/10/15 01:25:19;;;;;;;0.30;0.30;;;;;;;15.22;74.82;99269.75;5096915;28;20048;-71
2023/10/15 01:27:49;;;;;;;0.68;0.63;;;;;;;15.20;74.32;99271.50;5096745;28;20494;-70
2023/10/15 01:30:19;;;;;;;0.40;0.40;;;;;;;15.22;74.46;99272.31;5096984;28;20134;-71
2023/10/15 01:32:48;;;;;;;0.30;0.30;;;;;;;15.16;74.36;99280.19;5096606;28;20056;-71
2023/10/15 01:35:19;;;;;;;0.77;0.60;;;;;;;15.17;74.06;99272.44;5096664;28;20126;-71
2023/10/15 01:38:05;;;;;;;0.40;0.40;;;;;;;15.16;73.67;99275.91;5094908;28;20288;-71
2023/10/15 01:40:39;;;;;;;0.40;0.40;;;;;;;15.12;73.61;99278.56;5096575;28;20052;-71
2023/10/15 01:43:12;;;;;;;0.68;0.68;;;;;;;15.09;72.95;99283.81;5095583;28;20089;-70
2023/10/15 01:45:47;;;;;;;0.45;0.45;;;;;;;15.11;72.87;99282.03;5095569;28;20036;-71
2023/10/15 01:48:24;;;;;;;0.40;0.40;;;;;;;15.07;72.54;99267.59;5096287;28;20071;-71
2023/10/15 01:50:53;;;;;;;0.40;0.40;;;;;;;15.13;72.95;99280.28;5096401;28;20547;-70
2023/10/15 01:53:23;;;;;;;0.68;0.68;;;;;;;15.10;72.97;99280.34;5095049;28;20127;-71
2023/10/15 01:56:02;;;;;;;0.68;0.60;;;;;;;15.08;72.94;99282.09;5095052;28;20099;-70
2023/10/15 01:58:32;;;;;;;0.93;0.88;;;;;;;15.04;73.48;99270.22;5094990;28;20512;-70
2023/10/15 02:01:09;;;;;;;0.60;0.60;;;;;;;15.05;73.45;99266.75;5095330;28;20558;-71
2023/10/15 02:03:38;;;;;;;0.40;0.40;;;;;;;14.95;74.27;99260.19;5096075;28;20078;-71
2023/10/15 02:06:08;;;;;;;0.40;0.40;;;;;;;14.87;75.11;99286.06;5096093;28;20090;-70
2023/10/15 02:08:39;;;;;;;0.30;0.30;;;;;;;14.76;75.01;99285.47;5095912;28;20055;-70
2023/10/15 02:11:21;;;;;;;0.68;0.68;;;;;;;14.71;75.11;99298.41;5094841;28;20048;-71
2023/10/15 02:13:55;;;;;;;0.65;0.50;;;;;;;14.64;75.42;99294.31;5094202;28;20084;-69
2023/10/15 02:16:29;;;;;;;0.80;0.80;;;;;;;14.63;74.88;99309.75;5095068;28;20056;-71
2023/10/15 02:18:59;;;;;;;0.40;0.40;;;;;;;14.65;75.14;99298.56;5094900;28;20405;-71
2023/10/15 02:21:31;;;;;;;0.40;0.40;;;;;;;14.64;74.72;99285.75;5094868;28;20044;-71
2023/10/15 02:24:08;;;;;;;0.40;0.40;;;;;;;14.60;74.65;99308.13;5095786;28;20055;-70
2023/10/15 02:26:39;;;;;;;0.88;0.88;;;;;;;14.56;75.01;99318.50;5095155;28;20102;-70
2023/10/15 02:29:27;;;;;;;0.70;0.70;;;;;;;14.47;74.47;99314.38;5094674;28;20043;-70
2023/10/15 02:32:06;;;;;;;0.40;0.40;;;;;;;14.47;74.94;99301.56;5095579;28;20101;-70
2023/10/15 02:34:40;;;;;;;0.32;0.32;;;;;;;14.45;74.41;99323.84;5094437;28;20048;-70
2023/10/15 02:37:16;;;;;;;0.40;0.40;;;;;;;14.45;74.08;99361.53;5095800;28;20075;-70
2023/10/15 02:39:50;;;;;;;0.40;0.40;;;;;;;14.38;74.09;99368.50;5095366;28;20044;-69
2023/10/15 02:42:30;;;;;;;0.35;0.35;;;;;;;14.36;73.65;99365.16;5096447;28;20470;-71
2023/10/15 02:45:00;;;;;;;0.40;0.40;;;;;;;14.35;73.30;99358.31;5095345;28;20498;-71
2023/10/15 02:47:41;;;;;;;0.60;0.60;;;;;;;14.34;72.77;99366.91;5095307;28;20040;-69
2023/10/15 02:50:16;;;;;;;0.40;0.40;;;;;;;14.31;72.64;99359.25;5094345;28;20051;-70
2023/10/15 02:52:46;;;;;;;0.40;0.40;;;;;;;14.34;72.83;99358.34;5095276;28;20044;-70
2023/10/15 02:55:26;;;;;;;0.40;0.40;;;;;;;14.38;72.80;99355.69;5094146;28;20092;-71
2023/10/15 02:58:02;;;;;;;0.63;0.63;;;;;;;14.35;72.30;99353.16;5077188;28;20048;-71
2023/10/15 03:00:32;;;;;;;0.45;0.45;;;;;;;14.35;72.51;99350.59;5094979;28;20055;-71
2023/10/15 03:03:07;;;;;;;0.40;0.40;;;;;;;14.27;72.10;99352.47;5094961;28;20127;-71
2023/10/15 03:05:41;;;;;;;0.40;0.40;;;;;;;14.25;72.56;99354.22;5095190;28;20525;-70
2023/10/15 03:08:18;;;;;;;0.50;0.50;;;;;;;14.23;71.73;99355.97;5094817;28;20043;-71
2023/10/15 03:10:55;;;;;;;0.40;0.40;;;;;;;14.23;72.25;99340.56;5094909;28;20044;-71
2023/10/15 03:13:26;;;;;;;0.30;0.30;;;;;;;14.24;71.45;99332.00;5094723;28;20040;-71
2023/10/15 03:15:57;;;;;;;1.02;0.95;;;;;;;14.21;71.54;99338.91;5093787;28;20398;-70
2023/10/15 03:18:30;;;;;;;0.40;0.40;;;;;;;14.19;72.19;99349.22;5094782;28;20044;-71
2023/10/15 03:21:09;;;;;;;0.45;0.45;;;;;;;14.13;72.08;99344.22;5094585;28;20043;-71
2023/10/15 03:23:41;;;;;;;1.40;0.60;;;;;;;14.12;71.77;99329.69;5093563;28;20048;-71
2023/10/15 03:26:17;;;;;;;0.30;0.30;;;;;;;14.20;71.74;99325.25;5093560;28;20497;-70
2023/10/15 03:28:52;;;;;;;0.40;0.40;;;;;;;14.24;71.45;99337.13;5094806;28;20052;-71
2023/10/15 03:31:25;;;;;;;0.38;0.38;;;;;;;14.32;71.97;99324.16;5094815;28;20051;-71
2023/10/15 03:36:48;;;;;;;0.60;0.60;;;;;;;14.24;71.54;99316.59;5094459;28;20040;-71
2023/10/15 03:39:24;;;;;;;0.57;0.57;;;;;;;14.16;71.50;99308.19;5094379;28;20054;-70
2023/10/15 03:42:08;;;;;;;0.35;0.35;;;;;;;14.13;71.12;99310.84;5094311;28;20481;-71
2023/10/15 03:44:44;;;;;;;0.40;0.40;;;;;;;14.04;71.17;99299.03;5094303;28;20066;-70
2023/10/15 03:47:16;;;;;;;0.60;0.60;;;;;;;14.01;70.51;99313.66;5094202;28;20064;-71
2023/10/15 03:49:46;;;;;;;0.60;0.60;;;;;;;14.04;69.80;99309.31;5094367;28;20054;-71
2023/10/15 03:52:20;;;;;;;0.73;0.60;;;;;;;14.06;69.86;99286.16;5094105;28;20093;-72
2023/10/15 03:54:49;;;;;;;0.47;0.47;;;;;;;14.04;69.15;99272.53;5094005;28;20072;-71
2023/10/15 03:57:19;;;;;;;0.55;0.55;;;;;;;14.01;68.34;99285.44;5094289;28;20086;-72
2023/10/15 03:59:52;;;;;;;0.32;0.32;;;;;;;14.04;68.24;99299.03;5093979;28;20044;-71
2023/10/15 04:02:25;;;;;;;0.30;0.30;;;;;;;14.01;67.78;99313.66;5093788;28;20501;-71
2023/10/15 04:05:07;;;;;;;0.47;0.47;;;;;;;14.00;67.50;99322.22;5093943;28;20127;-72
2023/10/15 04:07:46;;;;;;;0.50;0.50;;;;;;;13.95;67.45;99314.63;5094495;28;20555;-72
2023/10/15 04:10:22;;;;;;;2.58;1.35;;;;;;;14.01;67.25;99326.50;5094135;28;20048;-70
2023/10/15 04:12:51;;;;;;;0.40;0.40;;;;;;;14.05;67.08;99346.09;5093805;28;20050;-70
2023/10/15 04:15:22;;;;;;;0.50;0.50;;;;;;;14.01;67.40;99365.81;5093725;28;20048;-70
2023/10/15 04:17:52;;;;;;;0.40;0.40;;;;;;;14.05;67.46;99356.34;5093857;28;20044;-71
2023/10/15 04:20:25;;;;;;;;;;;;;;;14.05;68.09;99348.66;5094461;28;20028;-70
2023/10/15 04:22:55;;;;;;;0.50;0.50;;;;;;;14.02;67.81;99356.41;5093966;28;19919;-71
2023/10/15 04:25:27;;;;;;;0.40;0.40;;;;;;;13.93;68.58;99367.69;5093519;28;20040;-71
2023/10/15 04:27:56;;;;;;;0.60;0.60;;;;;;;13.86;69.20;99372.97;5093921;28;20040;-70
2023/10/15 04:30:26;;;;;;;0.50;0.50;;;;;;;13.81;69.20;99382.47;5093619;28;20040;-70
2023/10/15 04:32:56;;;;;;;1.35;0.82;;;;;;;13.74;69.48;99397.13;5093657;28;20452;-71
2023/10/15 04:35:29;;;;;;;5.63;0.75;;;;;;;13.76;69.64;99392.81;5093442;28;20051;-70
2023/10/15 04:38:06;;;;;;;1.85;0.98;;;;;;;13.76;69.25;99391.97;5093592;28;20097;-72
2023/10/15 04:40:48;;;;;;;0.75;0.50;;;;;;;13.80;70.11;99396.16;5093572;28;20085;-71
2023/10/15 04:43:21;;;;;;;0.30;0.30;;;;;;;13.76;69.45;99387.69;5092508;28;20059;-71
2023/10/15 04:45:51;;;;;;;0.35;0.35;;;;;;;13.72;70.31;99372.38;5093493;28;20052;-71
2023/10/15 04:48:26;;;;;;;0.30;0.30;;;;;;;13.62;70.22;99358.03;5093587;28;20098;-70
2023/10/15 04:51:01;;;;;;;0.50;0.50;;;;;;;13.56;71.36;99360.69;5093735;28;20119;-71
2023/10/15 04:53:31;;;;;;;0.30;0.30;;;;;;;13.52;71.62;99365.06;5093651;28;20115;-70
2023/10/15 04:56:04;;;;;;;0.30;0.30;;;;;;;13.50;71.67;99360.81;5093839;28;20068;-71
2023/10/15 04:58:34;;;;;;;0.50;0.50;;;;;;;13.43;71.76;99366.06;5093521;28;20047;-70
2023/10/15 05:01:06;;;;;;;2.05;0.55;;;;;;;13.30;72.39;99364.56;5093630;28;20080;-70
2023/10/15 05:03:38;;;;;;;0.40;0.38;;;;;;;13.26;72.24;99367.22;5093361;28;20040;-72
2023/10/15 05:06:10;;;;;;;0.40;0.40;;;;;;;13.16;72.43;99358.84;5093722;28;20094;-71
2023/10/15 05:08:42;;;;;;;0.82;0.82;;;;;;;13.19;72.41;99361.34;5093599;28;20044;-70
2023/10/15 05:11:11;;;;;;;0.30;0.30;;;;;;;13.09;72.77;99352.13;5093358;28;20044;-72
2023/10/15 05:13:42;;;;;;;0.40;0.40;;;;;;;13.04;72.72;99363.28;5094983;28;20044;-70
2023/10/15 05:16:14;;;;;;;0.40;0.40;;;;;;;13.00;72.82;99365.03;5097300;28;20062;-70
2023/10/15 05:18:44;;;;;;;0.40;0.40;;;;;;;12.97;73.01;99372.78;5096987;28;20068;-71
2023/10/15 05:21:13;;;;;;;0.73;0.73;;;;;;;12.97;73.08;99375.34;5097098;28;20048;-70
2023/10/15 05:23:42;;;;;;;;;;;;;;;12.98;73.12;99382.13;5097818;28;20040;-70
2023/10/15 05:26:12;;;;;;;1.25;1.00;;;;;;;12.95;73.00;99392.44;5096934;28;19926;-71
2023/10/15 05:28:41;;;;;;;0.32;0.32;;;;;;;13.00;73.34;99400.91;5097013;28;20055;-70
2023/10/15 05:31:11;;;;;;;1.77;1.67;;;;;;;12.99;73.33;99403.47;5096751;28;20052;-70
2023/10/15 05:33:42;;;;;;;0.70;0.68;;;;;;;12.97;72.78;99406.06;5096469;28;20186;-71
2023/10/15 05:36:11;;;;;;;0.60;0.60;;;;;;;12.98;72.95;99402.63;5096660;28;20040;-71
2023/10/15 05:38:41;;;;;;;4.37;0.53;;;;;;;12.97;73.13;99400.94;5096726;28;20064;-71
2023/10/15 05:41:10;;;;;;;0.40;0.40;;;;;;;12.99;72.49;99409.44;5096607;28;20044;-71
2023/10/15 05:43:39;;;;;;;0.30;0.30;;;;;;;12.98;72.12;99412.88;5096919;28;20043;-71
2023/10/15 05:46:09;;;;;;;0.30;0.30;;;;;;;13.02;72.01;99406.84;5096699;28;20040;-70
2023/10/15 05:48:38;;;;;;;0.57;0.47;;;;;;;13.02;71.87;99419.66;5096212;28;20051;-69
2023/10/15 05:51:10;;;;;;;0.63;0.63;;;;;;;13.07;71.31;99419.63;5097214;28;20048;-71
2023/10/15 05:53:39;;;;;;;0.35;0.35;;;;;;;13.00;70.84;99421.41;5096738;28;20269;-70
2023/10/15 05:56:08;;;;;;;0.70;0.70;;;;;;;13.03;70.68;99423.91;5096216;28;20048;-70
2023/10/15 05:58:37;;;;;;;0.43;0.43;;;;;;;13.08;70.22;99432.41;5096120;28;20101;-70
2023/10/15 06:01:06;;;;;;;0.70;0.70;;;;;;;13.02;70.12;99431.63;5096350;28;20044;-70
2023/10/15 06:03:35;;;;;;;0.43;0.43;;;;;;;12.99;69.79;99429.94;5096095;28;20044;-71
2023/10/15 06:06:05;;;;;;;0.98;0.80;;;;;;;12.89;69.67;99428.38;5096591;28;20478;-70
2023/10/15 06:08:35;;;;;;;0.50;0.50;;;;;;;12.85;69.82;99431.00;5096273;28;20052;-70
2023/10/15 06:11:04;;;;;;;0.40;0.40;;;;;;;12.86;70.23;99432.72;5094774;28;20044;-70
2023/10/15 06:13:33;;;;;;;0.40;0.40;;;;;;;12.89;70.31;99443.75;5096028;28;20044;-70
2023/10/15 06:16:04;;;;;;;0.60;0.60;;;;;;;12.83;70.50;99443.84;5096068;28;20268;-70
2023/10/15 06:18:33;;;;;;;0.88;0.85;;;;;;;12.73;71.00;99452.50;5095969;28;20048;-70
2023/10/15 06:21:01;;;;;;;1.65;0.85;;;;;;;12.69;71.13;99461.13;5095676;28;20051;-70
2023/10/15 06:23:30;;;;;;;0.30;0.30;;;;;;;12.65;71.44;99465.41;5101921;28;20048;-70
2023/10/15 06:26:00;;;;;;;2.33;1.00;;;;;;;12.67;71.45;99462.81;5114895;28;20051;-70
2023/10/15 06:28:29;;;;;;;0.40;0.40;;;;;;;12.76;70.85;99465.28;5115943;28;20050;-70
2023/10/15 06:30:59;;;;;;;0.50;0.50;;;;;;;12.84;70.40;99476.25;5115952;28;20063;-71
2023/10/15 06:33:29;;;;;;;0.70;0.70;;;;;;;12.94;70.04;99482.97;5115970;28;20496;-71
2023/10/15 06:35:58;;;;;;;0.28;0.28;;;;;;;12.95;69.33;99489.78;5115813;28;20066;-70
2023/10/15 06:38:28;;;;;;;1.25;0.80;;;;;;;12.96;69.00;99501.72;5115986;28;20143;-71
2023/10/15 06:40:57;;;;;;;0.70;0.70;;;;;;;12.97;68.83;99498.28;5116033;28;20050;-70
2023/10/15 06:43:28;;;;;;;0.50;0.50;;;;;;;12.97;68.64;99505.13;5115739;28;20055;-70
2023/10/15 06:46:06;;;;;;;1.45;0.90;;;;;;;12.98;69.10;99511.97;5114759;28;20050;-70
2023/10/15 06:48:37;;;;;;;0.30;0.30;;;;;;;12.88;68.74;99507.81;5115547;28;20047;-70
2023/10/15 06:51:06;;;;;;;0.50;0.50;;;;;;;12.76;68.92;99508.81;5115590;28;20043;-70
2023/10/15 06:53:35;;;;;;;0.50;0.50;;;;;;;12.61;69.68;99503.88;5115394;28;20042;-71
2023/10/15 06:56:06;;;;;;;0.63;0.50;;;;;;;12.65;70.07;99500.41;5115205;28;20051;-71
2023/10/15 06:58:37;;;;;;;0.65;0.65;;;;;;;12.64;69.58;99494.44;5116017;28;20675;-69
2023/10/15 07:01:07;;;;;;;0.40;0.40;;;;;;;12.68;69.00;99500.38;5115339;28;20089;-70
2023/10/15 07:03:36;;;;;;;0.70;0.70;;;;;;;12.81;68.51;99491.69;5115476;28;20055;-70
2023/10/15 07:06:06;;;;;;;0.60;0.60;;;;;;;12.95;67.18;99487.22;5112134;28;20351;-70
2023/10/15 07:08:35;;;;;;;0.50;0.50;;;;;;;13.16;67.16;99489.53;5116099;28;20088;-70
2023/10/15 07:11:05;;;;;;;1.13;1.05;;;;;;;13.29;66.43;99480.78;5114960;28;20048;-71
2023/10/15 07:13:34;;;;;;;0.50;0.50;;;;;;;13.51;66.08;99486.41;5115423;28;20046;-70
2023/10/15 07:16:06;;;;;;;3.33;2.20;;;;;;;13.73;65.46;99486.91;5115347;28;20044;-70
2023/10/15 07:18:34;;;;;;;0.98;0.75;;;;;;;13.79;65.02;99491.97;5115273;28;20120;-69
2023/10/15 07:21:04;;;;;;;2.58;0.90;;;;;;;13.76;64.52;99494.56;5115301;28;20075;-70
2023/10/15 07:23:33;;;;;;;0.40;0.40;;;;;;;13.81;63.58;99495.34;5114920;28;20555;-70
2023/10/15 07:26:02;;;;;;;0.80;0.70;;;;;;;13.88;63.36;99497.78;5115252;28;20127;-70
2023/10/15 07:28:32;;;;;;;0.90;0.65;;;;;;;13.86;62.59;99508.94;5114731;28;20043;-69
2023/10/15 07:31:01;;;;;;;0.90;0.70;;;;;;;13.72;63.19;99501.50;5114807;28;20051;-69
2023/10/15 07:33:31;;;;;;;0.75;0.73;;;;;;;13.69;62.58;99505.81;5118476;27;20477;-70
2023/10/15 07:36:02;;;;;;;0.35;0.35;;;;;;;13.65;62.85;99502.47;5114273;28;20110;-70
2023/10/15 07:38:33;;;;;;;0.40;0.40;;;;;;;13.68;62.63;99504.94;5114650;28;20043;-70
2023/10/15 07:41:02;;;;;;;0.50;0.50;;;;;;;13.80;62.27;99504.75;5114511;28;20039;-70
2023/10/15 07:43:31;;;;;;;0.35;0.35;;;;;;;14.05;62.50;99502.63;5114528;28;20044;-70
2023/10/15 07:46:00;;;;;;;1.10;1.00;;;;;;;14.17;61.93;99494.69;5113778;28;20043;-69
2023/10/15 07:48:29;;;;;;;0.40;0.40;;;;;;;14.28;61.18;99507.31;5114473;28;20119;-69
2023/10/15 07:50:59;;;;;;;0.57;0.57;;;;;;;14.34;59.62;99497.84;5114454;28;20071;-70
2023/10/15 07:53:28;;;;;;;0.60;0.60;;;;;;;14.38;58.08;99504.59;5114903;28;20104;-70
2023/10/15 07:55:57;;;;;;;0.50;0.50;;;;;;;14.38;58.28;99496.03;5114259;28;20127;-69
2023/10/15 07:58:26;;;;;;;1.27;1.03;;;;;;;14.39;57.88;99495.19;5114341;28;20272;-69
2023/10/15 08:00:54;;;;;;;0.70;0.70;;;;;;;14.42;57.15;99495.13;5114583;28;20039;-69
2023/10/15 08:03:39;;;;;;;0.50;0.50;;;;;;;14.59;56.55;99498.19;5114109;28;20089;-69
2023/10/15 08:06:10;;;;;;;0.50;0.50;;;;;;;14.68;55.59;99493.72;5114453;28;20118;-68
2023/10/15 08:08:39;;;;;;;0.50;0.50;;;;;;;14.74;55.35;99497.88;5114492;28;20558;-69
2023/10/15 08:11:08;;;;;;;2.00;1.07;;;;;;;14.82;55.01;99496.03;5114431;28;20048;-69
2023/10/15 08:13:37;;;;;;;0.50;0.50;;;;;;;14.93;55.04;99500.91;5114942;28;20032;-68
2023/10/15 08:16:07;;;;;;;0.40;0.40;;;;;;;14.83;53.57;99491.72;5113988;28;20038;-69
2023/10/15 08:18:36;;;;;;;0.57;0.57;;;;;;;14.84;53.76;99493.41;5114342;28;20040;-69
2023/10/15 08:21:05;;;;;;;0.40;0.40;;;;;;;14.91;53.03;99489.84;5114049;28;20054;-69
2023/10/15 08:23:38;;;;;;;0.40;0.40;;;;;;;14.92;52.02;99491.53;5114200;28;20175;-69
2023/10/15 08:26:07;;;;;;;0.50;0.50;;;;;;;15.01;51.47;99486.19;5112821;28;20079;-68
2023/10/15 08:28:36;;;;;;;0.40;0.40;;;;;;;15.08;51.78;99477.47;5113917;28;20118;-69
2023/10/15 08:31:05;;;;;;;0.50;0.50;;;;;;;15.25;52.08;99490.78;5113936;28;20048;-68
2023/10/15 08:33:34;;;;;;;0.60;0.60;;;;;;;15.35;51.56;99476.84;5113805;28;20386;-68
2023/10/15 08:36:03;;;;;;;0.50;0.50;;;;;;;15.32;51.42;99489.78;5113863;28;20340;-69
2023/10/15 08:38:32;;;;;;;0.50;0.50;;;;;;;15.31;51.60;99498.34;5114095;28;20039;-68
2023/10/15 08:41:05;;;;;;;0.40;0.40;;;;;;;15.40;51.34;99482.72;5113922;28;20271;-68
2023/10/15 08:43:35;;;;;;;0.28;0.28;;;;;;;15.49;51.38;99487.69;5114151;28;20131;-69
2023/10/15 08:46:09;;;;;;;1.27;1.17;;;;;;;15.59;51.42;99481.44;5113997;28;20100;-68
2023/10/15 08:48:42;;;;;;;0.73;0.73;;;;;;;15.65;51.13;99476.13;5115805;28;20225;-68
2023/10/15 08:51:13;;;;;;;0.57;0.57;;;;;;;15.55;50.75;99479.81;5118187;28;20123;-68
2023/10/15 08:53:43;;;;;;;0.38;0.38;;;;;;;15.53;50.69;99476.44;5118201;28;20040;-69
2023/10/15 08:56:14;;;;;;;0.32;0.32;;;;;;;15.58;50.38;99473.75;5117770;28;20050;-68
2023/10/15 08:58:45;;;;;;;2.45;1.20;;;;;;;15.51;50.33;99462.78;5117755;28;20068;-69
2023/10/15 09:01:13;;;;;;;0.65;0.65;;;;;;;15.41;50.24;99467.25;5117722;28;20052;-69
2023/10/15 09:03:42;;;;;;;0.70;0.70;;;;;;;15.43;50.49;99462.91;5117682;28;20048;-69
2023/10/15 09:06:11;;;;;;;0.90;0.90;;;;;;;15.40;50.36;99457.00;5116393;28;20523;-69
2023/10/15 09:08:41;;;;;;;0.47;0.47;;;;;;;15.45;50.44;99462.94;5117850;28;20385;-68
2023/10/15 09:11:10;;;;;;;0.50;0.50;;;;;;;15.68;49.92;99464.94;5117654;28;20131;-69
2023/10/15 09:13:41;;;;;;;0.40;0.40;;;;;;;15.98;49.73;99461.59;5117494;28;20112;-68
2023/10/15 09:16:11;;;;;;;0.50;0.50;;;;;;;16.12;49.44;99466.38;5117698;28;20047;-67
2023/10/15 09:18:39;;;;;;;;;;;;;;;16.29;49.39;99456.47;5117989;28;20130;-68
2023/10/15 09:21:08;;;;;;;0.73;0.73;;;;;;;16.28;48.88;99452.19;5117382;28;19924;-67
2023/10/15 09:23:40;;;;;;;0.40;0.40;;;;;;;16.32;48.65;99443.47;5117214;28;20100;-67
2023/10/15 09:26:10;;;;;;;0.45;0.45;;;;;;;16.20;48.67;99454.13;5117322;28;20048;-68
2023/10/15 09:28:39;;;;;;;1.08;1.00;;;;;;;16.07;48.79;99454.47;5116277;28;20447;-68
2023/10/15 09:31:11;;;;;;;0.60;0.60;;;;;;;16.30;48.72;99433.22;5117428;27;20036;-68
2023/10/15 09:33:41;;;;;;;1.10;1.00;;;;;;;16.33;48.41;99430.56;5116831;28;20051;-68
2023/10/15 09:36:09;;;;;;;0.55;0.55;;;;;;;16.28;48.75;99426.44;5117248;28;20127;-69
2023/10/15 09:38:40;;;;;;;0.45;0.45;;;;;;;16.01;48.91;99413.44;5116938;28;20055;-68
2023/10/15 09:41:10;;;;;;;0.95;0.90;;;;;;;15.86;48.57;99418.97;5117614;28;20448;-69
2023/10/15 09:43:39;;;;;;;0.40;0.40;;;;;;;15.57;48.95;99436.91;5117227;28;20055;-69
2023/10/15 09:46:09;;;;;;;0.60;0.60;;;;;;;15.49;48.79;99443.97;5116811;28;20036;-68
2023/10/15 09:48:39;;;;;;;0.60;0.60;;;;;;;15.42;49.49;99439.81;5115914;28;20519;-69
2023/10/15 09:51:11;;;;;;;1.17;1.02;;;;;;;15.32;49.43;99446.06;5117035;28;20050;-68
2023/10/15 09:53:41;;;;;;;0.50;0.50;;;;;;;15.30;50.17;99442.69;5116671;28;20557;-68
2023/10/15 09:56:12;;;;;;;0.40;0.40;;;;;;;15.31;50.01;99457.22;5116946;27;20048;-69
2023/10/15 09:58:42;;;;;;;0.68;0.65;;;;;;;15.27;49.94;99463.31;5116201;28;20052;-69
2023/10/15 10:01:26;;;;;;;1.20;0.60;;;;;;;15.26;49.62;99448.78;5116536;28;20055;-69
2023/10/15 10:04:24;;;;;;;0.40;0.40;;;;;;;15.16;49.33;99455.00;5116903;28;20032;-69
2023/10/15 10:07:22;;;;;;;0.50;0.50;;;;;;;15.01;49.62;99445.06;5108565;27;20036;-69
2023/10/15 10:10:10;;;;;;;0.40;0.40;;;;;;;15.03;49.60;99449.28;5116763;28;20043;-69
2023/10/15 10:13:03;;;;;;;0.60;0.60;;;;;;;15.10;49.66;99456.00;5116285;28;20116;-68
2023/10/15 10:15:42;;;;;;;0.68;0.68;;;;;;;15.07;49.44;99452.66;5116209;28;20135;-69
2023/10/15 10:18:14;;;;;;;1.00;0.77;;;;;;;14.99;49.51;99457.13;5116208;28;20035;-70
2023/10/15 10:20:48;;;;;;;0.50;0.50;;;;;;;14.95;49.60;99465.78;5114946;28;20047;-69
2023/10/15 10:23:18;;;;;;;0.50;0.50;;;;;;;14.86;49.00;99465.94;5116176;28;20117;-69
2023/10/15 10:25:50;;;;;;;1.70;1.05;;;;;;;14.85;49.43;99474.56;5116518;28;20052;-69
2023/10/15 10:28:21;;;;;;;0.40;0.40;;;;;;;14.80;49.97;99472.09;5116513;28;20043;-70
2023/10/15 10:30:54;;;;;;;0.50;0.50;;;;;;;14.78;50.03;99479.81;5116306;28;20051;-68
2023/10/15 10:33:48;;;;;;;0.50;0.50;;;;;;;14.71;50.22;99488.53;5116079;28;20051;-69
2023/10/15 10:36:21;;;;;;;0.40;0.40;;;;;;;14.62;50.10;99470.72;5116496;28;20063;-69
2023/10/15 10:39:07;;;;;;;0.47;0.47;;;;;;;14.61;50.38;99476.75;5114144;28;20036;-69
2023/10/15 10:41:39;;;;;;;0.40;0.40;;;;;;;14.62;51.02;99477.59;5115243;28;20398;-69
2023/10/15 10:44:15;;;;;;;0.40;0.40;;;;;;;14.61;51.19;99484.44;5115504;28;20050;-69
2023/10/15 10:46:57;;;;;;;0.40;0.40;;;;;;;14.57;51.18;99493.09;5112026;28;20101;-69
2023/10/15 10:49:34;;;;;;;2.17;1.00;;;;;;;14.49;50.78;99473.59;5103998;28;20040;-70
2023/10/15 10:52:14;;;;;;;0.45;0.45;;;;;;;14.46;51.15;99477.06;5112348;28;20078;-68
2023/10/15 10:54:45;;;;;;;0.30;0.30;;;;;;;14.48;50.89;99484.72;5115684;28;20082;-68
2023/10/15 10:57:18;;;;;;;0.50;0.50;;;;;;;14.43;51.33;99466.84;5114318;28;20040;-70
2023/10/15 10:59:48;;;;;;;0.40;0.40;;;;;;;14.43;51.51;99461.72;5115260;28;20100;-69
2023/10/15 11:02:20;;;;;;;0.50;0.50;;;;;;;14.45;51.70;99470.22;5105551;28;20043;-70
2023/10/15 11:04:53;;;;;;;0.43;0.43;;;;;;;14.39;51.55;99472.94;5115446;28;20074;-70
2023/10/15 11:07:22;;;;;;;3.03;0.80;;;;;;;14.38;51.06;99473.78;5115477;28;20486;-70
2023/10/15 11:09:52;;;;;;;0.53;0.53;;;;;;;14.31;50.92;99482.50;5115106;28;20047;-70
2023/10/15 11:12:22;;;;;;;0.30;0.30;;;;;;;14.25;50.64;99472.31;5114326;28;20057;-70
2023/10/15 11:14:50;;;;;;;0.40;0.40;;;;;;;14.23;50.84;99468.91;5114960;28;20050;-69
2023/10/15 11:17:19;;;;;;;0.50;0.50;;;;;;;14.21;50.03;99473.22;5114850;28;20075;-70
2023/10/15 11:19:48;;;;;;;0.50;0.50;;;;;;;14.20;50.14;99469.00;5113856;28;20039;-70
2023/10/15 11:22:19;;;;;;;0.45;0.45;;;;;;;14.18;50.63;99468.16;5105699;28;20056;-70
2023/10/15 11:24:47;;;;;;;0.50;0.50;;;;;;;14.24;50.83;99460.34;5103747;28;20044;-71
2023/10/15 11:27:19;;;;;;;0.73;0.55;;;;;;;14.27;50.52;99460.28;5103758;28;20043;-70
2023/10/15 11:29:48;;;;;;;0.60;0.60;;;;;;;14.29;50.51;99466.25;5103519;28;20119;-71
2023/10/15 11:32:17;;;;;;;0.30;0.30;;;;;;;14.30;50.85;99470.50;5103635;28;20028;-71
2023/10/15 11:34:46;;;;;;;1.05;0.98;;;;;;;14.27;51.09;99475.69;5100667;28;20291;-70
2023/10/15 11:37:16;;;;;;;0.40;0.40;;;;;;;14.30;51.05;99479.94;5099419;28;20040;-70
2023/10/15 11:39:48;;;;;;;1.42;1.17;;;;;;;14.27;51.69;99498.81;5094107;28;20502;-70
2023/10/15 11:42:19;;;;;;;0.50;0.50;;;;;;;14.25;52.03;99477.44;5094349;28;20426;-70
2023/10/15 11:44:55;;;;;;;0.60;0.60;;;;;;;14.32;52.16;99468.78;5094083;28;20460;-70
2023/10/15 11:47:27;;;;;;;0.40;0.40;;;;;;;14.28;52.95;99461.97;5094453;28;20070;-71
2023/10/15 11:49:59;;;;;;;0.40;0.40;;;;;;;14.24;53.18;99465.47;5106943;28;20055;-71
2023/10/15 11:52:28;;;;;;;0.38;0.38;;;;;;;14.22;52.64;99471.50;5107980;28;20043;-71
2023/10/15 11:55:00;;;;;;;0.40;0.40;;;;;;;14.21;52.48;99470.66;5104440;28;20453;-70
2023/10/15 11:57:29;;;;;;;0.50;0.50;;;;;;;14.20;52.38;99463.84;5103491;28;20052;-70
2023/10/15 11:59:58;;;;;;;0.65;0.65;;;;;;;14.23;52.25;99486.88;5107218;28;20048;-70